• Join FlightAware (Why Join?)
  • Login
  • US Flag 
02:02AM EDT


 

Airport Tracker/Info


-or-


 

Live Flight TrackerFlight Track Log ✈ N8088H ✈ 18-Oct-2013 ✈ KGPT - KTPF

Flight Track Log - Related Links

Times and Time Zones

All times are in EDT time to prevent confusion due to time zone crossing. See the N8088H flight status page for this flight to view local times or setup timezone preferences in your user account.

Time Position Orientation Groundspeed Altitude Reporting Facility
EDT Latitude Longitude Course Direction KTS MPH feet Rate Location/Type
01:03PM 30.4733 -89.0661 111° Southeast 87 100 2,100  Level Houston Center
01:04PM 30.4783 -89.0333 80° East 105 121 2,700 540 Climbing Houston Center
01:05PM 30.4656 -89.0031 116° Southeast 108 124 3,300 540 Climbing Houston Center
01:06PM 30.3372 -88.8662 113° Southeast  Level Estimated
01:06PM 30.4547 -88.9706 111° Southeast 107 123 3,900  Level Houston Center
01:07PM 30.3219 -88.8260 114° Southeast  Level FlightAware Approximate
01:07PM 30.4422 -88.9358 113° Southeast 107 123 4,600  Level Houston Center
01:08PM 30.3067 -88.7859 114° Southeast  Level FlightAware Approximate
01:08PM 30.4294 -88.9039 115° Southeast 109 125 5,200  Level Houston Center
01:09PM 30.2926 -88.7451 111° Southeast  Level Estimated
01:09PM 30.4183 -88.8714 112° Southeast 109 125 5,800  Level Houston Center
01:10PM 30.4069 -88.8381 112° Southeast 111 128 6,500 600 Climbing Houston Center
01:11PM 30.3936 -88.8011 113° Southeast 119 137 7,100 600 Climbing Houston Center
01:12PM 30.3783 -88.7567 112° Southeast 124 143 7,800 600 Climbing Houston Center
01:13PM 30.3642 -88.7186 113° Southeast 127 146 8,400 480 Climbing Houston Center
01:14PM 30.3503 -88.6761 111° Southeast 137 158 8,900 240 Climbing Houston Center
01:15PM 30.3325 -88.6294 114° Southeast 153 176 8,900  Level Houston Center
01:16PM 30.3153 -88.5789 112° Southeast 166 191 8,900  Level Houston Center
01:17PM 30.2933 -88.5189 113° Southeast 170 196 8,900  Level Houston Center
01:18PM 30.2753 -88.4694 113° Southeast 168 193 8,900  Level Houston Center
01:19PM 30.2592 -88.4211 111° Southeast 163 188 8,900  Level Houston Center
01:20PM 30.2408 -88.3731 114° Southeast 164 189 8,900  Level Houston Center
01:21PM 30.2242 -88.3256 112° Southeast 161 185 8,900  Level Houston Center
01:22PM 30.2061 -88.2769 113° Southeast 163 188 8,900  Level Houston Center
01:23PM 30.1867 -88.2208 112° Southeast 158 182 8,900  Level Houston Center
01:25PM 30.1706 -88.1733 111° Southeast 159 183 8,900  Level Houston Center
01:26PM 30.1672 -88.1225 94° East 162 186 8,900  Level Houston Center
01:27PM 30.1625 -88.0747 97° East 152 175 8,900  Level Houston Center
01:28PM 30.1736 -88.0306 74° East 165 190 9,000  Climbing Houston Center
01:29PM 30.2131 -87.9950 38° Northeast 151 174 8,900 -60 Descending Houston Center
01:30PM 30.2475 -87.9689 33° Northeast 149 171 8,900  Level Houston Center
01:31PM 30.2811 -87.9406 36° Northeast 149 171 8,900  Level Houston Center
01:32PM 30.2978 -87.9019 63° Northeast 160 184 8,900  Level Houston Center
01:33PM 30.2747 -87.8633 125° Southeast 149 171 8,900  Level Houston Center
01:34PM 30.2811 -87.8022 83° East 165 190 8,900  Level Houston Center
01:35PM 30.2878 -87.7522 81° East 160 184 8,900  Level Houston Center
01:36PM 30.2919 -87.7008 85° East 161 185 8,900  Level Houston Center
01:37PM 30.2956 -87.6497 85° East 160 184 8,900  Level Houston Center
01:38PM 30.2958 -87.6169 89° East 162 186 8,900  Level Jacksonville Center
01:38PM 30.3017 -87.5717 82° East 162 186 8,900  Level Jacksonville Center
01:39PM 30.3058 -87.5167 85° East 163 188 8,900  Level Jacksonville Center
01:40PM 30.3117 -87.4711 82° East 163 188 8,900  Level Jacksonville Center
01:41PM 30.3136 -87.4183 88° East 163 188 8,900  Level Jacksonville Center
01:43PM 30.3197 -87.3608 83° East 164 189 8,900  Level Jacksonville Center
01:43PM 30.3214 -87.3103 88° East 163 188 9,000  Climbing Jacksonville Center
01:44PM 30.3275 -87.2603 82° East 163 188 9,000  Level Jacksonville Center
01:46PM 30.3356 -87.2028 81° East 165 190 9,000  Level Jacksonville Center
01:46PM 30.3372 -87.1522 88° East 165 190 9,000  Level Jacksonville Center
01:48PM 30.3478 -87.0578 83° East 163 188 9,000  Level Houston Center
01:49PM 30.3542 -86.9964 83° East 160 184 9,000  Level Houston Center
01:50PM 30.3589 -86.9442 84° East 163 188 9,000  Level Houston Center
01:51PM 30.3625 -86.8936 85° East 159 183 9,000  Level Houston Center
01:52PM 30.3633 -86.8433 89° East 159 183 9,000  Level Houston Center
01:54PM 30.3347 -86.8053 131° Southeast 154 177 9,000  Level Houston Center
01:55PM 30.3378 -86.7594 86° East 160 184 9,000  Level Houston Center
01:56PM 30.3481 -86.7003 79° East 161 185 9,000  Level Houston Center
01:57PM 30.3414 -86.6506 99° East 160 184 9,000  Level Houston Center
01:58PM 30.3325 -86.6011 102° East 158 182 9,000  Level Houston Center
01:59PM 30.3258 -86.5514 99° East 157 181 9,000  Level Houston Center
02:00PM 30.3197 -86.5019 98° East 156 180 9,000  Level Houston Center
02:01PM 30.3147 -86.4508 96° East 158 182 9,000  Level Houston Center
02:02PM 30.3072 -86.3917 98° East 156 180 9,000  Level Houston Center
02:03PM 30.3003 -86.3431 99° East 155 178 9,000  Level Houston Center
02:04PM 30.2942 -86.2942 98° East 155 178 9,000  Level Houston Center
02:05PM 30.2875 -86.2453 99° East 154 177 9,000  Level Houston Center
02:06PM 30.2822 -86.1969 97° East 152 175 9,000 -60 Level Houston Center
02:08PM 30.2948 -86.1281 78° East  Level FlightAware Approximate
02:15PM 30.3353 -85.8114 89° East  Level FlightAware Approximate
02:16PM 30.3361 -85.7665 89° East  Level FlightAware Approximate
02:17PM 30.3370 -85.7216 89° East  Level FlightAware Approximate
02:18PM 30.3377 -85.6767 89° East  Level FlightAware Approximate
02:19PM 30.3385 -85.6318 89° East  Level FlightAware Approximate
02:20PM 30.3393 -85.5869 89° East  Level FlightAware Approximate
02:21PM 30.3400 -85.5419 89° East  Level FlightAware Approximate
02:22PM 30.3408 -85.4970 89° East  Level FlightAware Approximate
02:23PM 30.3415 -85.4521 89° East  Level FlightAware Approximate
02:24PM 30.3422 -85.4072 89° East  Level FlightAware Approximate
02:25PM 30.3429 -85.3623 89° East  Level FlightAware Approximate
02:26PM 30.3435 -85.3173 89° East  Level FlightAware Approximate
02:27PM 30.3442 -85.2724 89° East  Level FlightAware Approximate
02:28PM 30.3449 -85.2275 89° East  Level FlightAware Approximate
02:29PM 30.3455 -85.1826 89° East  Level FlightAware Approximate
02:30PM 30.3461 -85.1377 89° East  Level FlightAware Approximate
02:31PM 30.3467 -85.0927 89° East  Level FlightAware Approximate
02:32PM 30.3473 -85.0478 89° East  Level FlightAware Approximate
02:33PM 30.3478 -85.0029 89° East  Level FlightAware Approximate
02:34PM 30.3484 -84.9580 89° East  Level FlightAware Approximate
02:35PM 30.3489 -84.9131 89° East  Level FlightAware Approximate
02:36PM 30.3494 -84.8681 89° East  Level FlightAware Approximate
02:37PM 30.3499 -84.8232 89° East  Level FlightAware Approximate
02:38PM 30.3500 -84.7783 90° East  Level FlightAware Approximate
02:39PM 30.3500 -84.7333 90° East  Level FlightAware Approximate
02:40PM 30.3355 -84.6940 127° Southeast  Level FlightAware Approximate
02:41PM 30.3124 -84.6579 127° Southeast  Level FlightAware Approximate
02:42PM 30.2893 -84.6218 127° Southeast  Level FlightAware Approximate
02:43PM 30.2662 -84.5858 127° Southeast  Level FlightAware Approximate
02:44PM 30.2431 -84.5498 127° Southeast  Level FlightAware Approximate
02:45PM 30.2199 -84.5137 127° Southeast  Level FlightAware Approximate
02:46PM 30.1968 -84.4778 127° Southeast  Level FlightAware Approximate
02:47PM 30.1736 -84.4418 127° Southeast  Level FlightAware Approximate
02:48PM 30.1505 -84.4058 127° Southeast  Level FlightAware Approximate
02:49PM 30.1273 -84.3699 127° Southeast  Level FlightAware Approximate
02:50PM 30.1041 -84.3339 127° Southeast  Level FlightAware Approximate
02:51PM 30.0809 -84.2980 127° Southeast  Level FlightAware Approximate
02:52PM 30.0577 -84.2622 127° Southeast  Level FlightAware Approximate
02:53PM 30.0345 -84.2263 127° Southeast  Level FlightAware Approximate
02:54PM 30.0113 -84.1904 127° Southeast  Level FlightAware Approximate
02:55PM 29.9881 -84.1546 127° Southeast  Level FlightAware Approximate
02:55PM 29.9522 -84.0697 127° Southeast 139 160 8,900  Level Jacksonville Center
02:56PM 29.9648 -84.1188 127° Southeast  Level FlightAware Approximate
02:56PM 29.9253 -84.0358 133° Southeast 139 160 8,900  Level Jacksonville Center
02:57PM 29.9416 -84.0829 127° Southeast  Level FlightAware Approximate
02:57PM 29.9025 -84.0019 128° Southeast 139 160 8,900  Level Jacksonville Center
02:58PM 29.9183 -84.0472 127° Southeast  Level FlightAware Approximate
02:58PM 29.8778 -83.9706 132° Southeast 139 160 8,900  Level Jacksonville Center
02:59PM 29.8951 -84.0114 127° Southeast  Level FlightAware Approximate
02:59PM 29.8531 -83.9392 132° Southeast 139 160 8,900  Level Jacksonville Center
03:00PM 29.8718 -83.9756 127° Southeast  Level FlightAware Approximate
03:00PM 29.8283 -83.9053 130° Southeast 139 160 8,900  Level Jacksonville Center
03:01PM 29.7992 -83.8786 142° Southeast 139 160 8,900  Level Jacksonville Center
03:02PM 29.7703 -83.8519 141° Southeast 139 160 8,900  Level Jacksonville Center
03:03PM 29.7369 -83.8303 151° Southeast 133 153 8,900  Level Jacksonville Center
03:04PM 29.7058 -83.8061 146° Southeast 133 153 8,900  Level Jacksonville Center
03:05PM 29.6747 -83.7842 148° Southeast 133 153 8,900  Level Jacksonville Center
03:06PM 29.6436 -83.7600 146° Southeast 133 153 8,900  Level Jacksonville Center
03:07PM 29.6144 -83.7336 142° Southeast 133 153 8,900  Level Jacksonville Center
03:08PM 29.5833 -83.7117 148° Southeast 133 153 8,900  Level Jacksonville Center
03:09PM 29.5500 -83.6853 145° Southeast 133 153 8,900  Level Jacksonville Center
03:10PM 29.5208 -83.6636 147° Southeast 138 159 8,900  Level Jacksonville Center
03:11PM 29.4897 -83.6369 143° Southeast 138 159 8,900  Level Jacksonville Center
03:12PM 29.4564 -83.6153 150° Southeast 138 159 8,900  Level Jacksonville Center
03:13PM 29.4253 -83.5911 146° Southeast 138 159 8,900  Level Jacksonville Center
03:14PM 29.3942 -83.5672 146° Southeast 138 159 8,900  Level Jacksonville Center
03:15PM 29.3650 -83.5408 142° Southeast 138 159 8,900  Level Jacksonville Center
03:16PM 29.3339 -83.5192 149° Southeast 138 159 8,900  Level Jacksonville Center
03:17PM 29.3006 -83.4950 148° Southeast 138 159 8,900  Level Jacksonville Center
03:18PM 29.2694 -83.4711 146° Southeast 138 159 8,900  Level Jacksonville Center
03:19PM 29.2381 -83.4469 146° Southeast 138 159 8,900  Level Jacksonville Center
03:20PM 29.2092 -83.4231 144° Southeast 138 159 8,900  Level Jacksonville Center
03:21PM 29.1778 -83.3992 146° Southeast 138 159 8,900  Level Jacksonville Center
03:22PM 29.1444 -83.3753 148° Southeast 138 159 8,900  Level Jacksonville Center
03:23PM 29.1133 -83.3536 149° Southeast 138 159 8,900  Level Jacksonville Center
03:24PM 29.0822 -83.3275 144° Southeast 138 159 8,900  Level Jacksonville Center
03:25PM 29.0531 -83.3036 144° Southeast 138 159 8,900  Level Jacksonville Center
03:26PM 29.0197 -83.2819 150° Southeast 138 159 8,900  Level Jacksonville Center
03:27PM 28.9906 -83.2581 144° Southeast 138 159 8,900 -240 Level Jacksonville Center
03:28PM 28.9572 -83.2319 146° Southeast 138 159 8,500 -600 Descending Jacksonville Center
03:29PM 28.9217 -83.2058 147° Southeast 143 165 7,800 -660 Descending Jacksonville Center
03:30PM 28.8864 -83.1772 145° Southeast 148 170 7,200 -420 Descending Jacksonville Center
03:31PM 28.8550 -83.1533 146° Southeast 148 170 7,000 -180 Descending Jacksonville Center
03:32PM 28.8258 -83.1319 147° Southeast 143 165 6,900 -60 Descending Jacksonville Center
03:33PM 28.7967 -83.1106 147° Southeast 138 159 6,900  Level Jacksonville Center
03:34PM 28.7675 -83.0867 144° Southeast 133 153 6,900  Level Jacksonville Center
03:35PM 28.7383 -83.0656 148° Southeast 127 146 6,900  Level Jacksonville Center
03:36PM 28.7111 -83.0417 142° Southeast 127 146 6,900  Level Jacksonville Center
03:38PM 28.6500 -83.0000 149° Southeast 128 147 6,900  Level Tampa TRACON
03:39PM 28.6167 -82.9833 156° South 127 146 6,900  Level Tampa TRACON
03:40PM 28.5833 -82.9500 139° Southeast 126 145 6,900  Level Tampa TRACON
03:41PM 28.5500 -82.9333 156° South 124 143 6,900  Level Tampa TRACON
03:42PM 28.5167 -82.9000 139° Southeast 124 143 6,900  Level Tampa TRACON
03:43PM 28.5000 -82.8833 139° Southeast 124 143 6,900 -180 Level Tampa TRACON
03:44PM 28.4667 -82.8667 156° South 125 144 6,600 -420 Descending Tampa TRACON
03:45PM 28.4167 -82.8667 180° South 143 165 6,000 -600 Descending Tampa TRACON
03:46PM 28.3833 -82.8500 156° South 144 166 5,400 -600 Descending Tampa TRACON
03:47PM 28.3500 -82.8500 180° South 144 166 4,800 -720 Descending Tampa TRACON
03:48PM 28.3000 -82.8500 180° South 147 169 4,100 -600 Descending Tampa TRACON
03:49PM 28.2667 -82.8333 156° South 144 166 3,600 -540 Descending Tampa TRACON
03:51PM 28.2333 -82.8167 156° South 138 159 3,000 -360 Descending Tampa TRACON
03:52PM 28.1833 -82.8167 180° South 133 153 2,900 -60 Descending Tampa TRACON
03:52PM 28.1667 -82.8167 180° South 120 138 2,900  Level Tampa TRACON
03:54PM 28.1167 -82.8000 164° South 120 138 3,000  Climbing Tampa TRACON
03:54PM 28.1000 -82.8000 180° South 122 140 2,900 -60 Descending Tampa TRACON
03:56PM 28.0667 -82.7833 156° South 120 138 2,900  Level Tampa TRACON
03:56PM 28.0333 -82.7500 139° Southeast 122 140 2,900 -60 Level Tampa TRACON
03:57PM 28.0167 -82.7333 139° Southeast 121 139 2,800 -60 Descending Tampa TRACON
03:58PM 28.0000 -82.7000 120° Southeast 114 131 2,800  Level Tampa TRACON
03:59PM 27.9833 -82.6667 120° Southeast 121 139 2,800  Level Tampa TRACON
04:00PM 27.9833 -82.6333 90° East 115 132 2,900  Climbing Tampa TRACON
04:02PM 27.9667 -82.6000 120° Southeast 118 136 2,800 -60 Descending Tampa TRACON
04:03PM 27.9667 -82.5500 90° East 114 131 2,800 -240 Level Tampa TRACON
04:04PM 27.9667 -82.5167 90° East 127 146 2,300 -480 Descending Tampa TRACON
04:04PM 27.9667 -82.4833 90° East 124 143 2,000 -540 Descending Tampa TRACON
04:06PM 27.9667 -82.4500 90° East 109 125 1,300 -600 Descending Tampa TRACON